Time;durP1;ratioP1;P1;durP2;ratioP2;P2;SDS_P1;SDS_P2;PMS_P1;PMS_P2;Temp;Humidity;BMP_temperature;BMP_pressure;BME280_temperature;BME280_humidity;BME280_pressure;Samples;Min_cycle;Max_cycle;Signal;HPM_P1;HPM_P2
2021/12/04 00:01:08;;;;;;;2.00;1.70;;;;;;;;;;6281002;28;20040;-87
2021/12/04 00:04:09;;;;;;;2.45;1.77;;;;;;;;;;6286328;28;20028;-86
2021/12/04 00:07:10;;;;;;;2.95;2.60;;;2.50;99.90;;;;;;6288411;28;20035;-86
2021/12/04 00:10:17;;;;;;;2.08;1.88;;;2.50;99.90;;;;;;6270866;28;20123;-86
2021/12/04 00:13:18;;;;;;;3.15;1.33;;;;;;;;;;6272552;28;20036;-86
2021/12/04 00:16:19;;;;;;;2.17;1.58;;;;;;;;;;6287006;28;20028;-87
2021/12/04 00:19:20;;;;;;;1.85;1.75;;;;;;;;;;6303526;28;20057;-86
2021/12/04 00:22:21;;;;;;;2.58;1.52;;;;;;;;;;6287123;28;20035;-86
2021/12/04 00:25:21;;;;;;;2.40;1.77;;;2.80;99.90;;;;;;6286674;28;20052;-86
2021/12/04 00:28:22;;;;;;;1.52;1.42;;;;;;;;;;6270665;28;20036;-87
2021/12/04 00:31:23;;;;;;;2.38;1.98;;;;;;;;;;6287095;28;20455;-85
2021/12/04 00:34:26;;;;;;;2.80;2.30;;;2.60;99.90;;;;;;6287019;28;20736;-86
2021/12/04 00:37:45;;;;;;;1.45;1.35;;;;;;;;;;6270930;28;20066;-87
2021/12/04 00:50:26;;;;;;;2.17;1.15;;;3.10;99.90;;;;;;6305235;28;20020;-87
2021/12/04 00:53:27;;;;;;;1.48;1.25;;;3.10;99.90;;;;;;6270360;28;20035;-86
2021/12/04 00:56:28;;;;;;;3.97;1.80;;;;;;;;;;6270183;28;20103;-88
2021/12/04 00:59:29;;;;;;;3.00;1.98;;;;;;;;;;6286392;28;20032;-87
2021/12/04 01:02:30;;;;;;;1.63;1.30;;;;;;;;;;6286475;28;20422;-87
2021/12/04 01:05:31;;;;;;;0.77;0.77;;;;;;;;;;6285274;28;20032;-85
2021/12/04 01:08:32;;;;;;;0.93;0.93;;;;;;;;;;6284366;28;20030;-84
2021/12/04 01:11:32;;;;;;;0.98;0.98;;;;;;;;;;6285826;28;20547;-85
2021/12/04 01:14:33;;;;;;;1.80;1.70;;;;;;;;;;6285974;28;20133;-87
2021/12/04 01:17:34;;;;;;;1.50;1.40;;;;;;;;;;6285504;28;20027;-89
2021/12/04 01:20:35;;;;;;;1.00;1.00;;;;;;;;;;6286050;28;20040;-85
2021/12/04 01:23:36;;;;;;;1.20;0.93;;;4.20;99.90;;;;;;6301439;28;20032;-88
2021/12/04 01:26:37;;;;;;;1.30;1.20;;;;;;;;;;6285750;28;20095;-85
2021/12/04 01:29:38;;;;;;;0.80;0.75;;;4.50;99.90;;;;;;6285510;28;20050;-86
2021/12/04 01:32:39;;;;;;;0.73;0.73;;;;;;;;;;6268409;28;20437;-85
2021/12/04 01:35:40;;;;;;;0.77;0.70;;;;;;;;;;6284946;28;20024;-85
2021/12/04 01:38:41;;;;;;;0.95;0.90;;;;;;;;;;6285608;28;20024;-85
2021/12/04 01:41:42;;;;;;;1.92;0.73;;;;;;;;;;6284942;28;20059;-85
2021/12/04 01:44:43;;;;;;;0.95;0.90;;;;;;;;;;6285834;28;20537;-87
2021/12/04 01:47:44;;;;;;;0.45;0.40;;;;;;;;;;6284959;28;20020;-88
2021/12/04 01:50:45;;;;;;;0.55;0.55;;;5.20;99.90;;;;;;6286067;28;20035;-87
2021/12/04 01:53:46;;;;;;;0.20;0.20;;;;;;;;;;6269207;28;20415;-87
2021/12/04 01:56:47;;;;;;;0.88;0.88;;;;;;;;;;6284430;28;20032;-86
2021/12/04 01:59:48;;;;;;;1.67;1.13;;;;;;;;;;6284961;28;20040;-87
2021/12/04 02:02:49;;;;;;;0.65;0.50;;;5.50;99.90;;;;;;6283763;28;20026;-85
2021/12/04 02:05:49;;;;;;;1.27;1.17;;;5.80;99.90;;;;;;6268411;28;20032;-86
2021/12/04 02:08:51;;;;;;;0.68;0.68;;;;;;;;;;6267949;28;20019;-85
2021/12/04 02:11:52;;;;;;;0.65;0.65;;;5.80;99.90;;;;;;6285065;28;20070;-85
2021/12/04 02:14:52;;;;;;;0.30;0.30;;;;;;;;;;6285213;28;20028;-85
2021/12/04 02:17:53;;;;;;;0.43;0.43;;;6.10;99.90;;;;;;6284186;28;20031;-85
2021/12/04 02:20:54;;;;;;;0.90;0.50;;;;;;;;;;6267742;28;20048;-86
2021/12/04 02:23:55;;;;;;;0.20;0.20;;;;;;;;;;6283940;28;20492;-84
2021/12/04 02:26:56;;;;;;;0.98;0.73;;;;;;;;;;6299864;28;20123;-83
2021/12/04 02:29:57;;;;;;;0.43;0.38;;;;;;;;;;6284047;28;20093;-86
2021/12/04 02:32:58;;;;;;;0.30;0.30;;;6.10;99.90;;;;;;6283893;28;20024;-85
2021/12/04 02:36:02;;;;;;;0.20;0.20;;;6.10;99.90;;;;;;6283810;28;20077;-85
2021/12/04 02:39:02;;;;;;;0.25;0.25;;;6.10;99.90;;;;;;6267720;28;20024;-84
2021/12/04 02:42:06;;;;;;;0.25;0.25;;;6.20;99.90;;;;;;6267107;28;20402;-84
2021/12/04 02:45:08;;;;;;;0.70;0.70;;;6.20;99.90;;;;;;6267384;28;20035;-85
2021/12/04 02:48:09;;;;;;;0.50;0.50;;;6.10;99.90;;;;;;6266646;28;20027;-84
2021/12/04 02:51:10;;;;;;;0.52;0.52;;;;;;;;;;6267135;28;20482;-86
2021/12/04 02:54:12;;;;;;;0.28;0.28;;;6.20;99.90;;;;;;6283487;28;20024;-85
2021/12/04 02:57:13;;;;;;;0.28;0.28;;;6.30;99.90;;;;;;6267229;28;20085;-85
2021/12/04 03:00:16;;;;;;;0.63;0.50;;;6.30;99.90;;;;;;6267217;28;20036;-85
2021/12/04 03:03:18;;;;;;;0.22;0.22;;;;;;;;;;6283553;28;20024;-85
2021/12/04 03:06:19;;;;;;;1.80;1.08;;;;;;;;;;6283561;28;20036;-84
2021/12/04 03:09:20;;;;;;;0.35;0.35;;;;;;;;;;6282669;28;20526;-86
2021/12/04 03:12:23;;;;;;;0.85;0.40;;;;;;;;;;6283509;28;20073;-84
2021/12/04 03:15:24;;;;;;;0.20;0.20;;;6.40;99.90;;;;;;6283440;28;20534;-84
2021/12/04 03:18:25;;;;;;;0.10;0.10;;;;;;;;;;6266263;28;20030;-85
2021/12/04 03:21:26;;;;;;;0.20;0.20;;;6.80;99.90;;;;;;6282973;28;20437;-85
2021/12/04 03:24:27;;;;;;;0.15;0.15;;;;;;;;;;6260401;28;20058;-85
2021/12/04 03:27:31;;;;;;;0.20;0.20;;;7.30;99.90;;;;;;6282068;28;20077;-85
2021/12/04 03:30:52;;;;;;;0.10;0.10;;;6.80;99.90;;;;;;6266520;28;20028;-85
2021/12/04 03:43:38;;;;;;;0.17;0.17;;;7.10;99.90;;;;;;6305759;28;20028;-84
2021/12/04 03:46:39;;;;;;;0.40;0.40;;;;;;;;;;6271223;28;20118;-88
2021/12/04 03:49:40;;;;;;;0.20;0.20;;;;;;;;;;6288264;28;20028;-85
2021/12/04 03:52:41;;;;;;;0.20;0.20;;;;;;;;;;6287517;28;20385;-87
2021/12/04 03:55:42;;;;;;;0.38;0.38;;;;;;;;;;6287393;28;20080;-84
2021/12/04 03:58:42;;;;;;;0.30;0.30;;;7.30;99.90;;;;;;6304417;28;20024;-87
2021/12/04 04:01:43;;;;;;;0.20;0.20;;;;;;;;;;6271067;28;20039;-85
2021/12/04 04:04:44;;;;;;;0.68;0.68;;;;;;;;;;6287668;28;20020;-86
2021/12/04 04:07:46;;;;;;;0.40;0.40;;;7.40;99.90;;;;;;6286770;28;20078;-85
2021/12/04 04:10:49;;;;;;;0.40;0.40;;;;;;;;;;6287771;28;20049;-85
2021/12/04 04:13:50;;;;;;;0.30;0.30;;;;;;;;;;6287139;28;20036;-83
2021/12/04 04:16:53;;;;;;;0.30;0.30;;;7.50;99.90;;;;;;6286860;28;20031;-85
2021/12/04 04:19:54;;;;;;;0.45;0.45;;;8.00;99.90;;;;;;6270608;28;20044;-85
2021/12/04 04:22:54;;;;;;;0.77;0.77;;;;;;;;;;6270582;28;20109;-84
2021/12/04 04:25:55;;;;;;;2.13;1.73;;;7.90;99.90;;;;;;6286762;28;20048;-84
2021/12/04 04:28:56;;;;;;;0.52;0.52;;;;;;;;;;6285503;28;20032;-85
2021/12/04 04:31:57;;;;;;;0.60;0.60;;;8.10;99.90;;;;;;6287121;28;20027;-86
2021/12/04 04:35:07;;;;;;;0.30;0.30;;;;;;;;;;6270210;28;20469;-85
2021/12/04 05:14:05;;;;;;;0.15;0.15;;;;;;;;;;6285599;28;20035;-86
2021/12/04 05:17:14;;;;;;;0.85;0.52;;;8.60;99.90;;;;;;6285958;28;20363;-85
2021/12/04 05:20:32;;;;;;;0.10;0.10;;;8.90;99.90;;;;;;6288970;28;20028;-86
2021/12/04 05:23:46;;;;;;;0.40;0.40;;;8.50;99.90;;;;;;6273906;28;20039;-85
2021/12/04 05:26:47;;;;;;;0.30;0.30;;;8.50;99.90;;;;;;6285663;28;20063;-86
2021/12/04 05:29:47;;;;;;;0.30;0.30;;;8.70;99.90;;;;;;6269723;28;20035;-85
2021/12/04 05:32:48;;;;;;;0.30;0.30;;;8.80;99.90;;;;;;6268923;28;20028;-87
2021/12/04 05:35:48;;;;;;;0.30;0.30;;;9.20;99.90;;;;;;6268372;28;20028;-85
2021/12/04 05:38:49;;;;;;;1.13;0.60;;;8.60;99.90;;;;;;6267139;28;20063;-85
2021/12/04 05:41:51;;;;;;;1.08;0.98;;;8.50;99.90;;;;;;6267829;28;20500;-89
2021/12/04 05:44:53;;;;;;;1.27;1.15;;;8.80;99.90;;;;;;6268763;28;20035;-85
2021/12/04 05:51:36;;;;;;;0.35;0.35;;;9.30;99.90;;;;;;6288774;28;20085;-84
2021/12/04 05:57:37;;;;;;;0.30;0.30;;;8.70;99.90;;;;;;6285192;28;20036;-85
2021/12/04 06:00:38;;;;;;;0.30;0.30;;;8.60;99.90;;;;;;6267474;28;20105;-84
2021/12/04 06:03:38;;;;;;;0.25;0.25;;;8.70;99.90;;;;;;6267645;28;20024;-84
2021/12/04 06:06:39;;;;;;;0.25;0.25;;;9.50;99.90;;;;;;6267702;28;20492;-84
2021/12/04 06:09:40;;;;;;;0.38;0.38;;;8.80;99.90;;;;;;6256154;28;20033;-85
2021/12/04 06:12:41;;;;;;;0.30;0.30;;;;;;;;;;6267589;28;20496;-83
2021/12/04 06:15:41;;;;;;;0.20;0.20;;;8.80;99.90;;;;;;6281909;28;20020;-84
2021/12/04 06:18:45;;;;;;;0.20;0.20;;;8.80;99.90;;;;;;6265684;28;20063;-85
2021/12/04 06:25:12;;;;;;;0.30;0.30;;;8.70;99.90;;;;;;6288636;28;20481;-84
2021/12/04 06:28:13;;;;;;;0.30;0.30;;;8.80;99.90;;;;;;6267986;28;20539;-84
2021/12/04 06:31:14;;;;;;;0.20;0.20;;;9.30;99.90;;;;;;6264344;28;20028;-85
2021/12/04 06:34:15;;;;;;;0.28;0.28;;;8.90;99.90;;;;;;6265374;28;20047;-84
2021/12/04 06:37:16;;;;;;;0.55;0.30;;;8.80;99.90;;;;;;6282427;28;20074;-84
2021/12/04 06:40:17;;;;;;;0.40;0.40;;;8.90;99.90;;;;;;6266296;28;20039;-84
2021/12/04 06:43:17;;;;;;;0.50;0.32;;;8.80;99.90;;;;;;6251796;28;20035;-83
2021/12/04 06:46:19;;;;;;;0.30;0.30;;;8.90;99.90;;;;;;6267207;28;20385;-87
2021/12/04 06:49:25;;;;;;;0.60;0.60;;;;;;;;;;6267276;28;20032;-87
2021/12/04 06:52:27;;;;;;;0.52;0.52;;;8.60;99.90;;;;;;6283905;28;20028;-83
2021/12/04 06:55:36;;;;;;;0.32;0.32;;;;;;;;;;6267594;28;20672;-85
2021/12/04 06:58:37;;;;;;;0.20;0.20;;;8.70;99.90;;;;;;6284541;28;20032;-84
2021/12/04 07:01:39;;;;;;;0.32;0.32;;;8.50;99.90;;;;;;6282794;28;20459;-84
2021/12/04 07:04:40;;;;;;;0.30;0.30;;;8.80;99.90;;;;;;6258405;28;20405;-84
2021/12/04 07:07:40;;;;;;;1.25;1.15;;;8.80;99.90;;;;;;6266639;28;20119;-84
2021/12/04 07:10:41;;;;;;;0.52;0.52;;;;;;;;;;6266617;28;20476;-83
2021/12/04 07:13:43;;;;;;;0.55;0.55;;;;;;;;;;6297901;28;20047;-85
2021/12/04 07:16:44;;;;;;;1.20;0.75;;;9.20;99.90;;;;;;6283174;28;20027;-84
2021/12/04 07:19:45;;;;;;;0.15;0.15;;;;;;;;;;6283478;28;20163;-89
2021/12/04 07:22:45;;;;;;;0.20;0.20;;;9.30;99.90;;;;;;6282838;28;20081;-84
2021/12/04 07:25:46;;;;;;;0.30;0.30;;;;;;;;;;6257893;28;20048;-85
2021/12/04 07:28:47;;;;;;;0.40;0.40;;;9.20;99.90;;;;;;6274408;28;20036;-85
2021/12/04 07:31:47;;;;;;;0.60;0.60;;;9.60;99.90;;;;;;6274226;28;20801;-84
2021/12/04 07:34:48;;;;;;;1.60;1.42;;;9.20;99.90;;;;;;6257159;28;20409;-87
2021/12/04 07:37:49;;;;;;;0.38;0.38;;;9.20;99.90;;;;;;6258273;28;20029;-84
2021/12/04 07:40:49;;;;;;;0.50;0.50;;;9.20;99.90;;;;;;6258365;28;20040;-84
2021/12/04 07:43:50;;;;;;;0.50;0.50;;;9.30;99.90;;;;;;6274977;28;20037;-83
2021/12/04 07:46:51;;;;;;;0.30;0.30;;;;;;;;;;6257931;28;20028;-86
2021/12/04 07:49:52;;;;;;;0.50;0.50;;;9.40;99.90;;;;;;6291629;28;20021;-84
2021/12/04 07:52:53;;;;;;;0.32;0.32;;;;;;;;;;6274683;28;20381;-84
2021/12/04 07:55:53;;;;;;;0.20;0.20;;;9.50;99.90;;;;;;6274593;28;20481;-84
2021/12/04 07:58:54;;;;;;;0.20;0.20;;;9.50;99.90;;;;;;6274281;28;20029;-84
2021/12/04 08:01:58;;;;;;;0.65;0.65;;;9.50;99.90;;;;;;6257841;28;20490;-84
2021/12/04 08:04:59;;;;;;;0.52;0.52;;;9.50;99.90;;;;;;6257966;28;20032;-85
2021/12/04 08:08:01;;;;;;;0.57;0.57;;;;;;;;;;6258388;28;20029;-84
2021/12/04 08:11:04;;;;;;;;;;;9.50;99.90;;;;;;6272847;28;20021;-82
2021/12/04 08:14:04;;;;;;;0.38;0.38;;;9.60;99.90;;;;;;6273766;28;19992;-85
2021/12/04 08:17:05;;;;;;;1.27;0.95;;;9.50;99.90;;;;;;6256922;28;20036;-82
2021/12/04 08:20:06;;;;;;;0.30;0.30;;;9.60;99.90;;;;;;6273333;28;20040;-82
2021/12/04 08:23:07;;;;;;;1.48;0.55;;;10.50;99.90;;;;;;6290717;28;20035;-80
2021/12/04 08:26:07;;;;;;;0.45;0.45;;;10.40;99.90;;;;;;6261215;28;20044;-81
2021/12/04 08:29:08;;;;;;;1.02;1.00;;;10.20;99.90;;;;;;6278507;28;20116;-82
2021/12/04 08:32:09;;;;;;;2.28;1.55;;;10.90;99.90;;;;;;6277844;28;20180;-83
2021/12/04 08:35:10;;;;;;;4.63;0.75;;;10.50;99.90;;;;;;6261882;28;20082;-80
2021/12/04 08:38:12;;;;;;;1.00;0.90;;;10.50;99.90;;;;;;6295046;28;20108;-81
2021/12/04 08:41:13;;;;;;;2.00;1.20;;;10.70;99.90;;;;;;6294580;28;20170;-80
2021/12/04 08:44:15;;;;;;;3.10;1.65;;;10.70;99.90;;;;;;6277229;28;20031;-82
2021/12/04 08:47:15;;;;;;;1.15;1.08;;;10.70;99.90;;;;;;6294567;28;20449;-80
2021/12/04 08:50:22;;;;;;;2.10;1.17;;;11.10;99.90;;;;;;6278049;28;20038;-81
2021/12/04 08:53:23;;;;;;;0.80;0.40;;;10.70;99.90;;;;;;6294635;28;20154;-84
2021/12/04 08:56:24;;;;;;;0.40;0.40;;;10.60;99.90;;;;;;6278173;28;20448;-81
2021/12/04 08:59:24;;;;;;;0.45;0.45;;;10.50;99.90;;;;;;6259769;28;20024;-80
2021/12/04 09:02:25;;;;;;;0.60;0.55;;;10.30;99.90;;;;;;6277602;28;20037;-80
2021/12/04 09:05:26;;;;;;;0.45;0.45;;;10.20;99.90;;;;;;6275710;28;20033;-79
2021/12/04 09:08:27;;;;;;;3.40;2.53;;;10.10;99.90;;;;;;6275882;28;20025;-80
2021/12/04 09:11:29;;;;;;;0.88;0.85;;;10.00;99.90;;;;;;6294358;28;20416;-79
2021/12/04 09:14:31;;;;;;;0.43;0.43;;;10.00;99.90;;;;;;6277417;28;20467;-79
2021/12/04 09:17:32;;;;;;;0.60;0.60;;;10.00;99.90;;;;;;6294297;28;20462;-80
2021/12/04 09:20:33;;;;;;;0.60;0.60;;;10.00;99.90;;;;;;6277128;28;20040;-79
2021/12/04 09:23:37;;;;;;;0.20;0.20;;;9.90;99.90;;;;;;6295348;28;20394;-79
2021/12/04 09:26:43;;;;;;;0.30;0.30;;;10.30;99.90;;;;;;6312434;28;20078;-80
2021/12/04 09:29:56;;;;;;;0.68;0.60;;;10.10;99.90;;;;;;6301466;28;20448;-79
2021/12/04 09:59:41;;;;;;;1.02;0.70;;;10.30;99.90;;;;;;6319605;28;20032;-78
2021/12/04 10:03:00;;;;;;;0.63;0.63;;;10.40;99.90;;;;;;6318902;28;20389;-82
2021/12/04 10:06:34;;;;;;;1.75;1.60;;;10.50;99.90;;;;;;6289106;28;20032;-79
2021/12/04 10:22:43;;;;;;;0.80;0.80;;;10.00;99.90;;;;;;6302795;28;20054;-80
2021/12/04 10:32:36;;;;;;;0.43;0.43;;;;;;;;;;6284507;28;20463;-80
2021/12/04 10:35:37;;;;;;;3.25;1.90;;;;;;;;;;6317627;28;20052;-80
2021/12/04 10:38:44;;;;;;;0.55;0.43;;;;;;;;;;6300662;28;20055;-79
2021/12/04 10:41:45;;;;;;;1.10;1.00;;;;;;;;;;6316578;28;20036;-79
2021/12/04 10:44:51;;;;;;;1.90;1.70;;;10.20;99.90;;;;;;6314269;28;20074;-79
2021/12/04 10:47:54;;;;;;;1.17;1.17;;;10.10;99.90;;;;;;6268162;28;20061;-78
2021/12/04 10:54:28;;;;;;;1.15;1.08;;;8.40;99.90;;;;;;6299316;28;20049;-80
2021/12/04 10:58:02;;;;;;;0.65;0.65;;;10.10;99.90;;;;;;6268722;28;20020;-81
2021/12/04 11:04:35;;;;;;;1.90;1.80;;;10.10;99.90;;;;;;6281705;28;20474;-79
2021/12/04 11:18:34;;;;;;;1.67;1.58;;;10.10;99.90;;;;;;6297954;28;20042;-82
2021/12/04 11:44:00;;;;;;;12.23;11.13;;;10.50;99.90;;;;;;6317880;28;20370;-80
2021/12/04 11:47:01;;;;;;;3.38;3.00;;;10.40;99.90;;;;;;6286214;28;20069;-81
2021/12/04 11:50:01;;;;;;;13.10;10.02;;;10.40;99.90;;;;;;6299550;28;20424;-80
2021/12/04 11:53:04;;;;;;;6.88;5.38;;;10.50;99.90;;;;;;6282662;28;20039;-79
2021/12/04 11:56:05;;;;;;;4.03;3.00;;;10.40;99.90;;;;;;6266397;28;20031;-80
2021/12/04 11:59:05;;;;;;;2.92;2.63;;;10.50;99.90;;;;;;6301482;28;20028;-81
2021/12/04 12:02:08;;;;;;;1.55;1.45;;;11.30;99.90;;;;;;6318811;28;20047;-84
2021/12/04 12:05:13;;;;;;;2.42;1.90;;;10.50;99.90;;;;;;6269300;28;20036;-84
2021/12/04 12:08:37;;;;;;;2.60;2.40;;;10.50;99.90;;;;;;6269404;28;20051;-81
2021/12/04 12:11:45;;;;;;;2.22;2.03;;;10.50;99.90;;;;;;6322697;28;20020;-81
2021/12/04 12:14:53;;;;;;;2.67;2.47;;;10.40;99.90;;;;;;6297770;28;20016;-80
2021/12/04 12:17:54;;;;;;;2.75;2.55;;;10.40;99.90;;;;;;6288069;28;20062;-81
2021/12/04 12:21:02;;;;;;;2.50;2.30;;;10.40;99.90;;;;;;6287828;28;20035;-82
2021/12/04 12:34:14;;;;;;;1.70;1.60;;;10.80;99.90;;;;;;6287587;28;20452;-82
2021/12/04 12:37:21;;;;;;;1.20;1.20;;;10.30;99.90;;;;;;6287056;28;20105;-81
2021/12/04 12:40:27;;;;;;;2.20;2.00;;;10.20;99.90;;;;;;6286592;28;20484;-83
2021/12/04 12:43:48;;;;;;;1.92;1.80;;;10.40;99.90;;;;;;6285322;28;20060;-81
2021/12/04 12:47:00;;;;;;;1.70;1.60;;;10.10;99.90;;;;;;6279881;28;20059;-82
2021/12/04 12:50:01;;;;;;;1.20;1.20;;;10.10;99.90;;;;;;6271226;28;20039;-81
2021/12/04 12:53:07;;;;;;;2.22;1.10;;;10.20;99.90;;;;;;6300731;28;20036;-81
2021/12/04 12:56:09;;;;;;;2.15;1.25;;;10.20;99.90;;;;;;6296351;28;20020;-81
2021/12/04 12:59:31;;;;;;;2.05;0.82;;;10.10;99.90;;;;;;6301217;28;20102;-80
2021/12/04 13:12:46;;;;;;;4.22;2.60;;;10.10;99.90;;;;;;6290792;28;20032;-82
2021/12/04 13:15:47;;;;;;;1.13;0.98;;;10.30;99.90;;;;;;6286030;28;20078;-84
2021/12/04 13:18:53;;;;;;;0.80;0.80;;;10.00;99.90;;;;;;6281622;28;20020;-83
2021/12/04 13:21:56;;;;;;;0.68;0.68;;;10.10;99.90;;;;;;6268809;28;20036;-84
2021/12/04 13:24:59;;;;;;;2.35;2.15;;;9.90;99.90;;;;;;6284741;28;20040;-84
2021/12/04 13:31:01;;;;;;;1.48;0.70;;;10.30;99.90;;;;;;6300469;28;20040;-86
2021/12/04 13:34:01;;;;;;;3.22;2.72;;;10.40;99.90;;;;;;6282359;28;20028;-85
2021/12/04 13:37:02;;;;;;;6.30;4.72;;;10.50;99.90;;;;;;6282912;28;20172;-86
2021/12/04 13:40:06;;;;;;;1.23;1.13;;;10.30;99.90;;;;;;6267092;28;20042;-85
2021/12/04 13:43:11;;;;;;;1.90;1.40;;;10.30;99.90;;;;;;6283293;28;20117;-85
2021/12/04 13:46:11;;;;;;;1.20;1.10;;;10.20;99.90;;;;;;6267675;28;20024;-83
2021/12/04 13:49:14;;;;;;;2.38;1.75;;;10.10;99.90;;;;;;6280662;28;20688;-82
2021/12/04 13:52:15;;;;;;;1.70;1.60;;;10.00;99.90;;;;;;6283561;28;20077;-81
2021/12/04 13:55:16;;;;;;;1.05;0.95;;;10.00;99.90;;;;;;6319919;28;20028;-80
2021/12/04 13:58:17;;;;;;;1.47;1.37;;;10.20;99.90;;;;;;6282423;28;20020;-82
2021/12/04 14:01:17;;;;;;;2.08;1.58;;;10.20;99.90;;;;;;6299503;28;20038;-81
2021/12/04 14:04:19;;;;;;;1.02;1.02;;;9.90;99.90;;;;;;6317263;28;20107;-81
2021/12/04 14:07:20;;;;;;;1.08;1.00;;;10.90;99.90;;;;;;6280627;28;20056;-81
2021/12/04 14:10:22;;;;;;;1.17;1.08;;;9.80;99.90;;;;;;6297860;28;20502;-81
2021/12/04 14:13:24;;;;;;;;;;;9.80;99.90;;;;;;6317004;28;20040;-81
2021/12/04 14:16:26;;;;;;;0.70;0.70;;;9.80;99.90;;;;;;6298464;28;19989;-81
2021/12/04 14:19:28;;;;;;;1.30;1.20;;;9.80;99.90;;;;;;6267464;28;20028;-81
2021/12/04 14:22:28;;;;;;;1.10;1.00;;;10.10;99.90;;;;;;6282292;28;20776;-78
2021/12/04 14:25:29;;;;;;;0.75;0.68;;;9.80;99.90;;;;;;6319011;28;20047;-79
2021/12/04 14:28:38;;;;;;;0.98;0.90;;;9.70;99.90;;;;;;6317769;28;20313;-84
2021/12/04 14:31:39;;;;;;;0.63;0.63;;;9.70;99.90;;;;;;6283202;28;20028;-82
2021/12/04 14:34:39;;;;;;;9.77;4.78;;;9.90;99.90;;;;;;6284574;28;20401;-87
2021/12/04 14:37:41;;;;;;;1.55;1.45;;;9.80;99.90;;;;;;6268400;28;20032;-85
2021/12/04 14:40:46;;;;;;;1.30;0.90;;;10.00;99.90;;;;;;6268414;28;20035;-81
2021/12/04 14:43:47;;;;;;;1.85;1.45;;;9.70;99.90;;;;;;6284913;28;20043;-85
2021/12/04 14:46:50;;;;;;;2.38;1.45;;;9.50;99.90;;;;;;6266286;28;20450;-86
2021/12/04 14:49:52;;;;;;;1.52;1.25;;;9.40;99.90;;;;;;6282588;28;20073;-88
2021/12/04 14:52:58;;;;;;;1.60;1.35;;;9.30;99.90;;;;;;6260995;28;20031;-88
2021/12/04 14:55:59;;;;;;;1.75;1.52;;;;;;;;;;6266922;28;20115;-84
2021/12/04 14:59:00;;;;;;;2.17;1.55;;;;;;;;;;6298159;28;20024;-87
2021/12/04 15:02:14;;;;;;;1.20;1.10;;;9.30;99.90;;;;;;6282060;28;20085;-87
2021/12/04 15:06:04;;;;;;;4.85;3.40;;;9.20;99.90;;;;;;6284364;28;20027;-86
2021/12/04 15:09:14;;;;;;;9.63;5.35;;;9.00;99.90;;;;;;6304304;28;20382;-87
2021/12/04 15:12:32;;;;;;;29.90;20.50;;;8.90;99.90;;;;;;6283758;28;20063;-87
2021/12/04 15:15:59;;;;;;;17.88;12.18;;;8.90;99.90;;;;;;6272390;28;20367;-88
2021/12/04 15:19:40;;;;;;;12.70;9.20;;;8.90;99.90;;;;;;6275859;28;20394;-88
2021/12/04 15:22:43;;;;;;;4.40;4.00;;;8.90;99.90;;;;;;6185604;28;20064;-88
2021/12/04 15:25:45;;;;;;;3.10;1.90;;;;;;;;;;6184548;28;20045;-88
2021/12/04 15:28:55;;;;;;;1.70;1.60;;;8.90;99.90;;;;;;6184757;28;20037;-88
2021/12/04 15:32:00;;;;;;;1.90;1.67;;;8.80;99.90;;;;;;6185382;28;20030;-88
2021/12/04 15:35:14;;;;;;;5.82;3.30;;;8.80;99.90;;;;;;6192538;28;20034;-87
2021/12/04 15:38:22;;;;;;;3.90;2.80;;;8.80;99.90;;;;;;6191597;28;20032;-86
2021/12/04 15:41:43;;;;;;;4.07;3.65;;;8.80;99.90;;;;;;6206570;28;20021;-87
2021/12/04 15:54:45;;;;;;;2.33;2.13;;;8.90;99.90;;;;;;6208731;28;20026;-89
2021/12/04 15:57:55;;;;;;;2.40;2.20;;;9.00;99.90;;;;;;6185875;28;20026;-87
2021/12/04 16:01:06;;;;;;;3.03;2.70;;;8.90;99.90;;;;;;6273241;28;20085;-87
2021/12/04 16:04:06;;;;;;;2.53;2.03;;;9.20;99.90;;;;;;6289048;28;20028;-86
2021/12/04 16:07:07;;;;;;;1.05;1.05;;;8.80;99.90;;;;;;6272913;28;20085;-88
2021/12/04 16:10:18;;;;;;;1.42;1.33;;;9.00;99.90;;;;;;6275021;28;20039;-88
2021/12/04 16:13:27;;;;;;;0.75;0.75;;;8.90;99.90;;;;;;6291230;28;20549;-87
2021/12/04 16:16:29;;;;;;;0.43;0.43;;;9.00;99.90;;;;;;6275260;28;20420;-86
2021/12/04 16:19:34;;;;;;;1.00;1.00;;;9.00;99.90;;;;;;6291882;28;20098;-85
2021/12/04 16:22:37;;;;;;;1.85;1.70;;;9.00;99.90;;;;;;6274881;28;20044;-87
2021/12/04 16:25:38;;;;;;;1.35;1.25;;;9.00;99.90;;;;;;6269810;28;20087;-87
2021/12/04 16:29:01;;;;;;;1.95;1.55;;;8.90;99.90;;;;;;6274374;28;20098;-87
2021/12/04 16:32:18;;;;;;;1.88;1.00;;;9.40;99.90;;;;;;6279345;28;20036;-88
2021/12/04 16:38:33;;;;;;;1.77;1.67;;;9.00;99.90;;;;;;6294535;28;20449;-87
2021/12/04 16:41:35;;;;;;;1.42;1.33;;;;;;;;;;6274574;28;20382;-86
2021/12/04 16:44:37;;;;;;;3.05;1.70;;;9.00;99.90;;;;;;6305008;28;20482;-88
2021/12/04 16:47:43;;;;;;;1.92;1.40;;;;;;;;;;6270630;28;20035;-85
2021/12/04 17:00:56;;;;;;;2.38;1.65;;;9.20;99.90;;;;;;6186149;28;20054;-82
2021/12/04 17:03:57;;;;;;;1.77;1.30;;;;;;;;;;6218050;28;20026;-82
2021/12/04 17:06:58;;;;;;;1.70;1.45;;;;;;;;;;6217733;28;20033;-83
2021/12/04 17:09:59;;;;;;;3.53;1.90;;;;;;;;;;6217769;28;20108;-82
2021/12/04 17:13:00;;;;;;;3.83;1.80;;;8.70;99.90;;;;;;6200861;28;20026;-83
2021/12/04 17:16:00;;;;;;;2.83;1.98;;;8.70;99.90;;;;;;6186691;28;20049;-82
2021/12/04 17:19:07;;;;;;;2.22;1.65;;;;;;;;;;6168964;28;20038;-84
2021/12/04 17:22:08;;;;;;;1.40;1.30;;;8.50;99.90;;;;;;6203581;28;20068;-84
2021/12/04 17:25:09;;;;;;;3.42;1.33;;;8.60;99.90;;;;;;6217301;28;20081;-84
2021/12/04 17:28:13;;;;;;;3.30;1.73;;;8.50;99.90;;;;;;6217208;28;20044;-83
2021/12/04 17:31:16;;;;;;;2.10;1.60;;;8.50;99.90;;;;;;6201029;28;20060;-82
2021/12/04 17:34:34;;;;;;;2.85;2.42;;;8.70;99.90;;;;;;6190597;28;22230;-84
2021/12/04 17:37:36;;;;;;;1.98;1.77;;;8.50;99.90;;;;;;6218150;28;20440;-85
2021/12/04 17:40:37;;;;;;;1.53;1.43;;;8.40;99.90;;;;;;6283576;28;20425;-83
2021/12/04 17:43:38;;;;;;;2.53;2.20;;;;;;;;;;6282257;28;20028;-82
2021/12/04 17:46:39;;;;;;;1.85;1.42;;;;;;;;;;6282773;28;20016;-79
2021/12/04 17:49:39;;;;;;;4.05;1.60;;;7.10;99.90;;;;;;6313919;28;20031;-82
2021/12/04 17:52:41;;;;;;;3.75;1.90;;;;;;;;;;6265125;28;20603;-83
2021/12/04 17:55:41;;;;;;;3.55;1.85;;;6.20;99.90;;;;;;6298578;28;20044;-85
2021/12/04 17:58:42;;;;;;;1.75;1.55;;;;;;;;;;6281991;28;20024;-82
2021/12/04 18:01:49;;;;;;;2.05;1.42;;;5.50;99.90;;;;;;6317435;28;20431;-86
2021/12/04 18:04:52;;;;;;;1.70;1.60;;;5.80;99.90;;;;;;6282632;28;20383;-85
2021/12/04 18:07:54;;;;;;;4.80;2.75;;;5.80;99.90;;;;;;6282828;28;20020;-86
2021/12/04 18:10:56;;;;;;;2.30;2.10;;;;;;;;;;6266750;28;20024;-85
2021/12/04 18:14:04;;;;;;;3.05;2.15;;;5.60;99.90;;;;;;6282112;28;20258;-84
2021/12/04 18:17:05;;;;;;;2.78;2.58;;;5.80;99.90;;;;;;6282741;28;20507;-80
2021/12/04 18:20:06;;;;;;;3.70;2.13;;;5.90;99.90;;;;;;6281688;28;20032;-81
2021/12/04 18:23:08;;;;;;;1.48;1.38;;;;;;;;;;6265874;28;20458;-81
2021/12/04 18:26:08;;;;;;;1.95;1.40;;;5.80;99.90;;;;;;6317447;28;20040;-83
2021/12/04 18:29:10;;;;;;;1.75;1.55;;;;;;;;;;6282315;28;20062;-80
2021/12/04 18:32:11;;;;;;;2.03;1.65;;;;;;;;;;6298617;28;20501;-81
2021/12/04 18:35:13;;;;;;;3.30;2.60;;;5.80;99.90;;;;;;6298904;28;20020;-83
2021/12/04 18:38:13;;;;;;;4.93;3.80;;;;;;;;;;6266101;28;20042;-83
2021/12/04 18:41:17;;;;;;;6.43;3.03;;;6.20;99.90;;;;;;6282060;28;20035;-83
2021/12/04 18:44:18;;;;;;;3.63;2.67;;;6.10;99.90;;;;;;6282668;28;20119;-83
2021/12/04 18:47:18;;;;;;;2.25;1.90;;;;;;;;;;6295519;28;20028;-84
2021/12/04 18:50:19;;;;;;;2.28;2.08;;;6.00;99.90;;;;;;6283075;28;20050;-84
2021/12/04 18:53:20;;;;;;;3.25;2.45;;;6.00;99.90;;;;;;6279258;28;20070;-83
2021/12/04 18:56:21;;;;;;;2.90;2.15;;;;;;;;;;6279914;28;20038;-83
2021/12/04 18:59:21;;;;;;;3.55;2.25;;;5.90;99.90;;;;;;6280609;28;20016;-85
2021/12/04 19:02:23;;;;;;;2.22;2.03;;;6.20;99.90;;;;;;6266192;28;20046;-84
2021/12/04 19:05:25;;;;;;;2.00;1.80;;;6.00;99.90;;;;;;6264582;28;20128;-82
2021/12/04 19:08:26;;;;;;;1.93;1.83;;;;;;;;;;6295599;28;20043;-82
2021/12/04 19:11:27;;;;;;;1.30;1.17;;;5.70;99.90;;;;;;6281294;28;20028;-85
2021/12/04 19:14:28;;;;;;;1.85;1.30;;;5.00;99.90;;;;;;6281300;28;20032;-83
2021/12/04 19:17:29;;;;;;;1.17;1.08;;;;;;;;;;6263156;28;20363;-84
2021/12/04 19:20:30;;;;;;;1.75;1.33;;;4.70;99.90;;;;;;6279145;28;20067;-82
2021/12/04 19:23:32;;;;;;;4.25;1.42;;;;;;;;;;6282329;28;20024;-84
2021/12/04 19:26:33;;;;;;;1.50;1.20;;;;;;;;;;6277722;28;21024;-82
2021/12/04 19:29:36;;;;;;;2.13;1.67;;;4.30;99.90;;;;;;6298049;28;20028;-82
2021/12/04 19:32:42;;;;;;;1.90;1.73;;;4.20;99.90;;;;;;6317059;28;20539;-84
2021/12/04 19:36:29;;;;;;;3.17;2.08;;;;;;;;;;6267589;28;20454;-82
2021/12/04 19:53:02;;;;;;;1.05;0.95;;;;;;;;;;6269456;28;20043;-81
2021/12/04 19:56:19;;;;;;;1.52;1.42;;;4.10;99.90;;;;;;6299853;28;20024;-82
2021/12/04 19:59:21;;;;;;;1.73;1.20;;;4.00;99.90;;;;;;6316893;28;20531;-78
2021/12/04 20:15:20;;;;;;;2.45;1.52;;;3.90;99.90;;;;;;6288272;28;20131;-80
2021/12/04 20:18:21;;;;;;;1.55;1.45;;;3.60;99.90;;;;;;6294767;28;20032;-80
2021/12/04 20:21:24;;;;;;;2.92;2.10;;;;;;;;;;6316761;28;20424;-79
2021/12/04 20:24:37;;;;;;;1.52;1.42;;;3.80;99.90;;;;;;6321715;28;20020;-79